createdAt,value
2022-12-05T00:01:16.859Z,101457.00
2022-12-05T00:03:46.153Z,101457.50
2022-12-05T00:06:13.755Z,101449.66
2022-12-05T00:08:41.451Z,101451.84
2022-12-05T00:11:13.627Z,101454.16
2022-12-05T00:13:41.563Z,101452.56
2022-12-05T00:16:11.331Z,101457.50
2022-12-05T00:18:40.412Z,101452.38
2022-12-05T00:21:08.658Z,101459.09
2022-12-05T00:23:36.081Z,101455.38
2022-12-05T00:26:04.946Z,101451.88
2022-12-05T00:28:32.503Z,101455.91
2022-12-05T00:31:03.667Z,101459.16
2022-12-05T00:33:31.102Z,101459.56
2022-12-05T00:36:04.488Z,101466.78
2022-12-05T00:38:31.904Z,101464.00
2022-12-05T00:41:04.382Z,101463.94
2022-12-05T00:43:31.915Z,101462.25
2022-12-05T00:46:02.396Z,101455.19
2022-12-05T00:48:29.891Z,101448.81
2022-12-05T00:51:03.694Z,101462.13
2022-12-05T00:53:31.672Z,101453.19
2022-12-05T00:56:03.590Z,101451.44
2022-12-05T00:58:31.357Z,101452.28
2022-12-05T01:01:07.294Z,101452.50
2022-12-05T01:03:35.031Z,101448.03
2022-12-05T01:06:05.913Z,101446.94
2022-12-05T01:08:34.346Z,101445.91
2022-12-05T01:11:02.615Z,101445.91
2022-12-05T01:13:30.497Z,101436.94
2022-12-05T01:15:58.680Z,101442.06
2022-12-05T01:18:26.928Z,101437.44
2022-12-05T01:20:54.730Z,101436.72
2022-12-05T01:23:23.737Z,101432.66
2022-12-05T01:25:53.222Z,101428.69
2022-12-05T01:28:21.389Z,101432.03
2022-12-05T01:30:50.769Z,101430.63
2022-12-05T01:33:18.588Z,101435.88
2022-12-05T01:35:46.106Z,101424.06
2022-12-05T01:38:13.926Z,101425.72
2022-12-05T01:40:42.624Z,101418.66
2022-12-05T01:43:15.822Z,101430.13
2022-12-05T01:45:45.360Z,101427.41
2022-12-05T01:48:17.330Z,101425.81
2022-12-05T01:50:45.383Z,101424.00
2022-12-05T01:53:12.837Z,101424.25
2022-12-05T01:55:40.434Z,101421.88
2022-12-05T01:58:11.123Z,101420.09
2022-12-05T02:00:40.579Z,101421.53
2022-12-05T02:03:12.663Z,101421.78
2022-12-05T02:05:40.160Z,101418.06
2022-12-05T02:08:10.250Z,101419.94
2022-12-05T02:10:41.290Z,101417.84
2022-12-05T02:13:22.324Z,101419.31
2022-12-05T02:15:58.629Z,101417.38
2022-12-05T02:18:40.154Z,101407.59
2022-12-05T02:21:36.304Z,101410.88
2022-12-05T02:24:28.649Z,101410.50
2022-12-05T02:27:19.033Z,101409.38
2022-12-05T02:30:02.840Z,101419.94
2022-12-05T02:32:50.794Z,101421.84
2022-12-05T02:35:34.070Z,101417.56
2022-12-05T02:38:13.475Z,101417.25
2022-12-05T02:40:48.845Z,101424.56
2022-12-05T02:43:21.393Z,101416.63
2022-12-05T02:45:55.386Z,101421.41
2022-12-05T02:48:24.701Z,101422.63
2022-12-05T02:50:54.552Z,101420.09
2022-12-05T02:53:23.649Z,101418.19
2022-12-05T02:55:51.273Z,101416.75
2022-12-05T02:58:24.173Z,101420.09
2022-12-05T03:00:57.317Z,101412.91
2022-12-05T03:03:26.251Z,101411.13
2022-12-05T03:06:01.344Z,101401.63
2022-12-05T03:08:32.281Z,101397.91
2022-12-05T03:11:02.404Z,101407.72
2022-12-05T03:13:34.893Z,101403.88
2022-12-05T03:16:09.076Z,101400.78
2022-12-05T03:18:41.298Z,101396.06
2022-12-05T03:21:16.221Z,101399.56
2022-12-05T03:23:48.185Z,101392.91
2022-12-05T03:26:26.619Z,101394.25
2022-12-05T03:29:02.519Z,101389.06
2022-12-05T03:31:39.349Z,101401.63
2022-12-05T03:34:11.104Z,101396.06
2022-12-05T03:36:43.875Z,101396.25
2022-12-05T03:39:18.747Z,101403.94
2022-12-05T03:41:56.526Z,101401.31
2022-12-05T03:44:29.981Z,101404.63
2022-12-05T03:47:05.534Z,101393.28
2022-12-05T03:49:38.749Z,101397.59
2022-12-05T03:52:11.370Z,101386.91
2022-12-05T03:54:43.375Z,101391.91
2022-12-05T03:57:16.080Z,101397.81
2022-12-05T03:59:47.762Z,101396.69
2022-12-05T04:02:27.084Z,101394.88
2022-12-05T04:04:57.719Z,101395.28
2022-12-05T04:07:26.709Z,101396.16
2022-12-05T04:09:58.499Z,101401.81
2022-12-05T04:12:30.131Z,101392.41
2022-12-05T04:15:02.878Z,101389.72
2022-12-05T04:17:36.123Z,101397.16
2022-12-05T04:20:25.372Z,101392.56
2022-12-05T04:22:52.995Z,101395.09
2022-12-05T04:25:35.083Z,101384.69
2022-12-05T04:28:28.211Z,101392.69
2022-12-05T04:31:04.196Z,101397.06
2022-12-05T04:33:40.633Z,101388.00
2022-12-05T04:36:13.248Z,101385.69
2022-12-05T04:38:44.906Z,101389.03
2022-12-05T04:41:16.671Z,101386.56
2022-12-05T04:43:48.162Z,101392.47
2022-12-05T04:46:19.088Z,101396.69
2022-12-05T04:48:52.152Z,101393.19
2022-12-05T04:51:24.656Z,101391.69
2022-12-05T04:53:58.347Z,101396.59
2022-12-05T04:56:30.780Z,101391.28
2022-12-05T04:58:58.451Z,101394.88
2022-12-05T05:01:30.989Z,101385.78
2022-12-05T05:04:04.533Z,101386.50
2022-12-05T05:06:32.135Z,101388.91
2022-12-05T05:09:00.025Z,101395.88
2022-12-05T05:11:29.902Z,101392.50
2022-12-05T05:13:57.376Z,101389.53
2022-12-05T05:16:26.949Z,101395.09
2022-12-05T05:18:55.047Z,101392.88
2022-12-05T05:21:26.136Z,101388.88
2022-12-05T05:23:54.367Z,101384.81
2022-12-05T05:26:22.704Z,101388.88
2022-12-05T05:28:50.864Z,101393.22
2022-12-05T05:31:19.890Z,101395.34
2022-12-05T05:33:49.839Z,101393.41
2022-12-05T05:36:17.481Z,101395.63
2022-12-05T05:38:48.253Z,101394.63
2022-12-05T05:41:17.188Z,101394.00
2022-12-05T05:43:44.976Z,101386.66
2022-12-05T05:46:13.255Z,101399.97
2022-12-05T05:48:40.871Z,101393.19
2022-12-05T05:51:10.859Z,101385.84
2022-12-05T05:53:39.207Z,101388.41
2022-12-05T05:56:10.534Z,101390.81
2022-12-05T05:58:38.048Z,101387.88
2022-12-05T06:01:06.581Z,101397.28
2022-12-05T06:03:34.351Z,101399.41
2022-12-05T06:06:04.684Z,101396.66
2022-12-05T06:08:32.362Z,101400.44
2022-12-05T06:11:01.545Z,101400.16
2022-12-05T06:13:30.292Z,101395.00
2022-12-05T06:15:57.832Z,101393.00
2022-12-05T06:18:25.396Z,101409.34
2022-12-05T06:20:54.113Z,101403.50
2022-12-05T06:23:21.938Z,101406.13
2022-12-05T06:25:50.062Z,101403.75
2022-12-05T06:28:17.766Z,101411.94
2022-12-05T06:30:46.850Z,101410.44
2022-12-05T06:33:15.654Z,101411.69
2022-12-05T06:35:43.815Z,101404.97
2022-12-05T06:38:11.915Z,101407.94
2022-12-05T06:40:41.892Z,101417.41
2022-12-05T06:43:09.496Z,101406.81
2022-12-05T06:45:38.895Z,101418.47
2022-12-05T06:48:07.963Z,101414.94
2022-12-05T06:50:35.346Z,101421.41
2022-12-05T06:53:02.752Z,101420.97
2022-12-05T06:55:30.226Z,101430.63
2022-12-05T06:57:58.346Z,101433.38
2022-12-05T07:00:55.194Z,101434.38
2022-12-05T07:03:23.996Z,101428.69
2022-12-05T07:05:51.453Z,101432.63
2022-12-05T07:08:18.926Z,101435.31
2022-12-05T07:10:52.250Z,101426.75
2022-12-05T07:13:19.857Z,101433.94
2022-12-05T07:15:47.539Z,101432.78
2022-12-05T07:18:15.428Z,101436.28
2022-12-05T07:21:10.723Z,101436.97
2022-12-05T07:23:32.119Z,101433.41
2022-12-05T07:25:59.967Z,101440.94
2022-12-05T07:28:27.400Z,101432.94
2022-12-05T07:31:01.065Z,101439.75
2022-12-05T07:33:28.750Z,101438.00
2022-12-05T07:36:02.159Z,101442.88
2022-12-05T07:38:30.699Z,101435.94
2022-12-05T07:40:58.191Z,101444.22
2022-12-05T07:43:25.931Z,101439.47
2022-12-05T07:45:53.450Z,101436.13
2022-12-05T07:48:21.223Z,101431.00
2022-12-05T07:50:48.712Z,101445.63
2022-12-05T07:53:17.658Z,101443.22
2022-12-05T07:55:45.114Z,101439.91
2022-12-05T07:58:12.592Z,101439.38
2022-12-05T08:00:40.026Z,101437.00
2022-12-05T08:03:07.479Z,101434.44
2022-12-05T08:05:35.338Z,101439.84
2022-12-05T08:08:02.855Z,101438.00
2022-12-05T08:10:31.986Z,101441.06
2022-12-05T08:12:59.498Z,101449.81
2022-12-05T08:15:27.007Z,101453.22
2022-12-05T08:17:54.442Z,101449.72
2022-12-05T08:20:22.088Z,101451.25
2022-12-05T08:22:52.810Z,101439.19
2022-12-05T08:25:20.370Z,101447.25
2022-12-05T08:27:49.106Z,101440.31
2022-12-05T08:30:16.644Z,101445.66
2022-12-05T08:32:44.046Z,101445.28
2022-12-05T08:35:11.537Z,101451.91
2022-12-05T08:37:38.950Z,101444.38
2022-12-05T08:40:07.523Z,101441.66
2022-12-05T08:42:34.955Z,101436.34
2022-12-05T08:45:03.954Z,101441.09
2022-12-05T08:47:32.587Z,101435.72
2022-12-05T08:50:00.408Z,101436.88
2022-12-05T08:52:28.275Z,101438.94
2022-12-05T08:54:56.095Z,101440.63
2022-12-05T08:57:23.723Z,101441.94
2022-12-05T08:59:51.107Z,101437.22
2022-12-05T09:02:19.894Z,101438.66
2022-12-05T09:04:54.062Z,101440.03
2022-12-05T09:07:21.747Z,101440.44
2022-12-05T09:09:49.182Z,101437.06
2022-12-05T09:12:16.635Z,101442.75
2022-12-05T09:14:44.048Z,101442.34
2022-12-05T09:17:11.452Z,101439.97
2022-12-05T09:19:40.186Z,101451.28
2022-12-05T09:22:07.628Z,101445.59
2022-12-05T09:24:35.020Z,101446.06
2022-12-05T09:27:02.491Z,101442.53
2022-12-05T09:29:32.437Z,101440.78
2022-12-05T09:31:59.855Z,101431.25
2022-12-05T09:34:27.490Z,101434.06
2022-12-05T09:37:10.638Z,101433.91
2022-12-05T09:39:46.026Z,101436.47
2022-12-05T09:42:32.269Z,101433.91
2022-12-05T09:45:06.174Z,101435.88
2022-12-05T09:47:43.785Z,101436.41
2022-12-05T09:50:19.971Z,101434.44
2022-12-05T09:52:59.133Z,101431.47
2022-12-05T09:55:30.707Z,101435.66
2022-12-05T09:58:01.455Z,101430.06
2022-12-05T10:00:30.547Z,101425.44
2022-12-05T10:03:04.828Z,101433.69
2022-12-05T10:05:41.828Z,101426.25
2022-12-05T10:08:18.857Z,101423.94
2022-12-05T10:10:58.042Z,101428.13
2022-12-05T10:13:42.338Z,101423.94
2022-12-05T10:16:14.192Z,101428.22
2022-12-05T10:18:45.043Z,101421.09
2022-12-05T10:21:19.616Z,101420.44
2022-12-05T10:23:58.270Z,101418.78
2022-12-05T10:26:29.442Z,101419.84
2022-12-05T10:29:00.305Z,101425.59
2022-12-05T10:31:31.743Z,101422.91
2022-12-05T10:34:05.884Z,101434.31
2022-12-05T10:36:33.640Z,101434.81
2022-12-05T10:39:06.945Z,101422.34
2022-12-05T10:41:37.388Z,101424.78
2022-12-05T10:44:06.071Z,101417.53
2022-12-05T10:46:33.817Z,101415.34
2022-12-05T10:49:01.290Z,101417.91
2022-12-05T10:51:35.624Z,101416.97
2022-12-05T10:54:17.286Z,101416.63
2022-12-05T10:56:46.948Z,101420.84
2022-12-05T10:59:17.144Z,101417.97
2022-12-05T11:01:48.491Z,101417.28
2022-12-05T11:04:24.669Z,101416.84
2022-12-05T11:06:55.053Z,101413.84
2022-12-05T11:09:27.042Z,101405.41
2022-12-05T11:12:17.725Z,101398.25
2022-12-05T11:15:01.172Z,101408.06
2022-12-05T11:17:33.392Z,101404.75
2022-12-05T11:20:01.614Z,101414.34
2022-12-05T11:22:34.501Z,101393.78
2022-12-05T11:25:25.254Z,101402.31
2022-12-05T11:27:55.863Z,101402.13
2022-12-05T11:30:29.249Z,101397.63
2022-12-05T11:33:13.216Z,101394.88
2022-12-05T11:35:41.168Z,101391.88
2022-12-05T11:38:12.150Z,101393.72
2022-12-05T11:40:48.626Z,101406.16
2022-12-05T11:43:38.094Z,101408.00
2022-12-05T11:46:14.649Z,101401.22
2022-12-05T11:48:57.989Z,101400.94
2022-12-05T11:51:38.060Z,101402.84
2022-12-05T11:55:03.957Z,101399.81
2022-12-05T11:57:34.909Z,101392.97
2022-12-05T12:00:21.948Z,101401.56
2022-12-05T12:03:32.563Z,101386.50
2022-12-05T12:06:16.300Z,101375.28
2022-12-05T12:08:57.105Z,101370.38
2022-12-05T12:11:31.302Z,101372.59
2022-12-05T12:14:09.382Z,101370.97
2022-12-05T12:16:47.169Z,101365.59
2022-12-05T12:19:30.990Z,101370.84
2022-12-05T12:22:08.310Z,101366.75
2022-12-05T12:24:51.360Z,101359.81
2022-12-05T12:27:34.754Z,101369.19
2022-12-05T12:30:10.703Z,101367.16
2022-12-05T12:32:46.668Z,101366.06
2022-12-05T12:35:32.875Z,101369.66
2022-12-05T12:38:23.537Z,101368.94
2022-12-05T12:40:54.029Z,101368.13
2022-12-05T12:43:56.815Z,101376.56
2022-12-05T12:46:39.123Z,101373.59
2022-12-05T12:49:19.913Z,101360.72
2022-12-05T12:51:53.857Z,101359.38
2022-12-05T12:55:02.859Z,101359.06
2022-12-05T12:57:35.206Z,101360.47
2022-12-05T13:00:10.814Z,101361.03
2022-12-05T13:02:45.925Z,101359.03
2022-12-05T13:05:24.533Z,101353.34
2022-12-05T13:07:56.739Z,101351.75
2022-12-05T13:10:29.336Z,101351.47
2022-12-05T13:13:00.240Z,101354.91
2022-12-05T13:15:34.483Z,101352.16
2022-12-05T13:18:05.385Z,101342.81
2022-12-05T13:20:35.766Z,101351.66
2022-12-05T13:23:08.221Z,101350.34
2022-12-05T13:25:39.937Z,101352.13
2022-12-05T13:28:21.309Z,101345.03
2022-12-05T13:31:05.813Z,101346.69
2022-12-05T13:33:37.283Z,101348.34
2022-12-05T13:36:25.845Z,101349.19
2022-12-05T13:39:16.291Z,101356.63
2022-12-05T13:42:03.729Z,101357.63
2022-12-05T13:44:36.291Z,101359.13
2022-12-05T13:47:07.331Z,101353.16
2022-12-05T13:49:44.898Z,101348.22
2022-12-05T13:52:17.120Z,101349.00
2022-12-05T13:54:47.976Z,101349.66
2022-12-05T13:57:52.363Z,101353.34
2022-12-05T14:00:31.914Z,101357.53
2022-12-05T14:03:04.451Z,101351.38
2022-12-05T14:05:45.426Z,101360.09
2022-12-05T14:09:04.066Z,101355.97
2022-12-05T14:11:31.765Z,101358.84
2022-12-05T14:14:04.333Z,101357.91
2022-12-05T14:16:45.366Z,101355.63
2022-12-05T14:19:48.664Z,101358.66
2022-12-05T14:22:54.805Z,101354.69
2022-12-05T14:25:36.147Z,101358.84
2022-12-05T14:28:19.079Z,101367.88
2022-12-05T14:30:58.682Z,101362.41
2022-12-05T14:33:26.511Z,101358.38
2022-12-05T14:35:54.473Z,101360.47
2022-12-05T14:38:28.541Z,101357.16
2022-12-05T14:41:12.599Z,101347.56
2022-12-05T14:43:41.803Z,101354.56
2022-12-05T14:46:17.656Z,101359.44
2022-12-05T14:48:48.296Z,101352.72
2022-12-05T14:51:44.763Z,101354.13
2022-12-05T14:54:16.668Z,101354.31
2022-12-05T14:56:47.564Z,101357.63
2022-12-05T14:59:25.974Z,101352.22
2022-12-05T15:01:57.115Z,101353.59
2022-12-05T15:04:33.349Z,101350.66
2022-12-05T15:07:05.376Z,101348.41
2022-12-05T15:09:44.036Z,101343.59
2022-12-05T15:12:18.034Z,101345.09
2022-12-05T15:14:53.315Z,101345.50
2022-12-05T15:17:26.678Z,101338.88
2022-12-05T15:20:00.189Z,101347.31
2022-12-05T15:22:30.314Z,101348.53
2022-12-05T15:24:58.030Z,101353.41
2022-12-05T15:27:26.993Z,101361.88
2022-12-05T15:29:56.654Z,101365.69
2022-12-05T15:32:28.092Z,101363.16
2022-12-05T15:35:02.497Z,101365.88
2022-12-05T15:37:35.428Z,101360.44
2022-12-05T15:40:10.269Z,101367.97
2022-12-05T15:42:43.377Z,101372.28
2022-12-05T15:45:24.200Z,101367.41
2022-12-05T15:47:55.011Z,101371.31
2022-12-05T15:50:27.663Z,101370.91
2022-12-05T15:52:59.238Z,101371.09
2022-12-05T15:55:32.816Z,101368.22
2022-12-05T15:58:12.656Z,101364.91
2022-12-05T16:00:44.530Z,101365.00
2022-12-05T16:03:17.846Z,101367.72
2022-12-05T16:05:50.514Z,101368.50
2022-12-05T16:08:18.357Z,101370.03
2022-12-05T16:10:45.922Z,101374.81
2022-12-05T16:13:16.498Z,101371.88
2022-12-05T16:15:53.035Z,101369.47
2022-12-05T16:18:26.549Z,101357.63
2022-12-05T16:20:54.203Z,101366.75
2022-12-05T16:23:29.884Z,101363.81
2022-12-05T16:26:12.353Z,101365.97
2022-12-05T16:28:41.291Z,101363.94
2022-12-05T16:31:09.098Z,101364.44
2022-12-05T16:33:41.823Z,101359.00
2022-12-05T16:36:11.587Z,101360.97
2022-12-05T16:38:40.791Z,101359.22
2022-12-05T16:41:09.252Z,101364.44
2022-12-05T16:43:46.192Z,101364.03
2022-12-05T16:46:43.808Z,101356.13
2022-12-05T16:49:20.520Z,101355.72
2022-12-05T16:51:55.682Z,101363.06
2022-12-05T16:54:23.113Z,101358.34
2022-12-05T16:56:50.952Z,101361.88
2022-12-05T16:59:24.062Z,101360.00
2022-12-05T17:01:51.644Z,101349.28
2022-12-05T17:04:19.179Z,101355.38
2022-12-05T17:06:46.649Z,101356.75
2022-12-05T17:09:14.088Z,101356.69
2022-12-05T17:11:45.359Z,101352.13
2022-12-05T17:14:14.922Z,101363.97
2022-12-05T17:16:44.479Z,101352.34
2022-12-05T17:19:12.699Z,101354.81
2022-12-05T17:21:42.948Z,101349.56
2022-12-05T17:24:15.810Z,101360.44
2022-12-05T17:26:43.262Z,101351.47
2022-12-05T17:29:11.584Z,101354.75
2022-12-05T17:31:39.427Z,101357.25
2022-12-05T17:34:15.676Z,101356.84
2022-12-05T17:36:43.240Z,101347.06
2022-12-05T17:39:10.731Z,101348.25
2022-12-05T17:41:38.434Z,101349.63
2022-12-05T17:44:06.440Z,101357.38
2022-12-05T17:46:34.401Z,101361.72
2022-12-05T17:49:01.873Z,101351.59
2022-12-05T17:51:30.746Z,101351.69
2022-12-05T17:53:58.180Z,101358.84
2022-12-05T17:56:25.571Z,101355.59
2022-12-05T17:58:53.020Z,101359.00
2022-12-05T18:01:21.476Z,101356.31
2022-12-05T18:03:49.753Z,101358.19
2022-12-05T18:06:18.415Z,101351.91
2022-12-05T18:08:47.176Z,101352.44
2022-12-05T18:11:15.816Z,101348.94
2022-12-05T18:13:43.332Z,101347.59
2022-12-05T18:16:10.874Z,101345.63
2022-12-05T18:18:38.311Z,101345.19
2022-12-05T18:21:08.077Z,101346.44
2022-12-05T18:23:37.056Z,101347.31
2022-12-05T18:26:07.237Z,101354.97
2022-12-05T18:28:35.412Z,101345.59
2022-12-05T18:31:08.603Z,101342.47
2022-12-05T18:33:36.364Z,101353.25
2022-12-05T18:36:08.745Z,101348.19
2022-12-05T18:38:36.650Z,101351.69
2022-12-05T18:41:07.011Z,101352.19
2022-12-05T18:43:35.003Z,101356.63
2022-12-05T18:46:05.316Z,101360.66
2022-12-05T18:48:46.012Z,101357.94
2022-12-05T18:51:16.846Z,101360.00
2022-12-05T18:53:51.525Z,101363.81
2022-12-05T18:56:23.715Z,101356.41
2022-12-05T18:58:55.823Z,101364.78
2022-12-05T19:01:23.501Z,101365.44
2022-12-05T19:03:51.539Z,101369.19
2022-12-05T19:06:21.324Z,101365.38
2022-12-05T19:08:49.275Z,101366.63
2022-12-05T19:11:20.112Z,101369.25
2022-12-05T19:13:48.234Z,101370.91
2022-12-05T19:16:18.516Z,101365.53
2022-12-05T19:18:46.903Z,101376.97
2022-12-05T19:21:14.861Z,101361.53
2022-12-05T19:23:42.400Z,101373.06
2022-12-05T19:26:11.163Z,101373.56
2022-12-05T19:28:39.895Z,101380.44
2022-12-05T19:31:09.961Z,101374.06
2022-12-05T19:33:39.006Z,101372.31
2022-12-05T19:36:09.953Z,101368.00
2022-12-05T19:38:38.336Z,101365.34
2022-12-05T19:41:07.703Z,101362.47
2022-12-05T19:43:36.757Z,101367.00
2022-12-05T19:46:07.419Z,101370.25
2022-12-05T19:48:34.973Z,101370.06
2022-12-05T19:51:02.670Z,101368.22
2022-12-05T19:53:31.523Z,101361.25
2022-12-05T19:56:02.443Z,101362.47
2022-12-05T19:58:31.999Z,101369.97
2022-12-05T20:01:09.186Z,101372.13
2022-12-05T20:03:36.926Z,101368.34
2022-12-05T20:06:04.707Z,101377.81
2022-12-05T20:08:32.363Z,101374.78
2022-12-05T20:11:04.715Z,101374.78
2022-12-05T20:13:48.055Z,101381.47
2022-12-05T20:16:21.355Z,101376.22
2022-12-05T20:18:50.028Z,101373.09
2022-12-05T20:21:19.335Z,101381.25
2022-12-05T20:23:47.155Z,101377.22
2022-12-05T20:26:17.699Z,101378.28
2022-12-05T20:28:45.328Z,101378.75
2022-12-05T20:31:14.787Z,101384.75
2022-12-05T20:33:44.349Z,101387.22
2022-12-05T20:36:14.117Z,101377.41
2022-12-05T20:38:42.085Z,101377.31
2022-12-05T20:41:11.354Z,101373.03
2022-12-05T20:43:39.301Z,101378.19
2022-12-05T20:46:08.461Z,101372.63
2022-12-05T20:48:36.604Z,101372.44
2022-12-05T20:51:07.079Z,101369.44
2022-12-05T20:53:35.948Z,101369.19
2022-12-05T20:56:04.955Z,101373.94
2022-12-05T20:58:32.469Z,101380.50
2022-12-05T21:01:00.519Z,101375.06
2022-12-05T21:03:28.275Z,101366.94
2022-12-05T21:05:55.790Z,101369.06
2022-12-05T21:08:24.541Z,101362.50
2022-12-05T21:10:53.487Z,101358.66
2022-12-05T21:13:21.216Z,101361.53
2022-12-05T21:15:48.746Z,101364.50
2022-12-05T21:18:16.212Z,101360.19
2022-12-05T21:20:43.647Z,101361.63
2022-12-05T21:23:11.338Z,101366.13
2022-12-05T21:25:40.065Z,101361.97
2022-12-05T21:28:07.458Z,101364.75
2022-12-05T21:30:35.553Z,101357.16
2022-12-05T21:33:05.449Z,101363.81
2022-12-05T21:35:33.270Z,101364.56
2022-12-05T21:38:01.189Z,101358.50
2022-12-05T21:40:29.552Z,101359.50
2022-12-05T21:42:58.301Z,101363.97
2022-12-05T21:45:25.760Z,101365.88
2022-12-05T21:47:53.826Z,101362.78
2022-12-05T21:50:21.220Z,101366.25
2022-12-05T21:52:48.622Z,101367.00
2022-12-05T21:55:16.024Z,101359.25
2022-12-05T21:57:43.426Z,101372.56
2022-12-05T22:00:13.184Z,101365.69
2022-12-05T22:02:40.619Z,101371.38
2022-12-05T22:05:08.794Z,101361.53
2022-12-05T22:07:36.262Z,101365.59
2022-12-05T22:10:03.957Z,101366.34
2022-12-05T22:12:34.293Z,101367.13
2022-12-05T22:15:02.156Z,101362.78
2022-12-05T22:17:31.189Z,101360.00
2022-12-05T22:20:01.947Z,101355.34
2022-12-05T22:22:31.267Z,101365.03
2022-12-05T22:24:59.070Z,101359.91
2022-12-05T22:27:27.923Z,101359.69
2022-12-05T22:29:55.316Z,101354.91
2022-12-05T22:32:22.857Z,101359.97
2022-12-05T22:34:59.184Z,101351.72
2022-12-05T22:37:29.642Z,101350.78
2022-12-05T22:39:59.443Z,101348.91
2022-12-05T22:42:27.845Z,101349.47
2022-12-05T22:44:56.330Z,101346.66
2022-12-05T22:47:23.805Z,101345.66
2022-12-05T22:49:52.530Z,101339.53
2022-12-05T22:52:20.113Z,101332.84
2022-12-05T22:54:47.507Z,101326.44
2022-12-05T22:57:17.268Z,101331.19
2022-12-05T22:59:44.704Z,101329.19
2022-12-05T23:02:12.119Z,101322.63
2022-12-05T23:04:42.058Z,101319.22
2022-12-05T23:07:10.814Z,101317.97
2022-12-05T23:09:38.283Z,101302.91
2022-12-05T23:12:06.216Z,101307.94
2022-12-05T23:14:33.728Z,101308.50
2022-12-05T23:17:01.281Z,101304.03
2022-12-05T23:19:28.756Z,101310.19
2022-12-05T23:21:56.398Z,101306.41
2022-12-05T23:24:25.245Z,101307.28
2022-12-05T23:26:52.693Z,101299.66
2022-12-05T23:29:20.241Z,101303.38
2022-12-05T23:31:47.708Z,101304.16
2022-12-05T23:34:15.203Z,101294.47
2022-12-05T23:36:42.680Z,101290.22
2022-12-05T23:39:10.424Z,101284.53
2022-12-05T23:41:39.218Z,101287.22
2022-12-05T23:44:06.700Z,101278.63
2022-12-05T23:46:34.254Z,101270.50
2022-12-05T23:49:01.865Z,101274.47
2022-12-05T23:51:30.480Z,101280.00
2022-12-05T23:54:00.206Z,101269.47
2022-12-05T23:56:29.470Z,101274.22
2022-12-05T23:58:58.236Z,101273.25
